createdAt,value
2022-11-21T00:01:17.501Z,100.00
2022-11-21T00:03:46.611Z,100.00
2022-11-21T00:06:16.122Z,100.00
2022-11-21T00:08:46.772Z,100.00
2022-11-21T00:11:16.094Z,100.00
2022-11-21T00:13:45.418Z,100.00
2022-11-21T00:16:16.668Z,100.00
2022-11-21T00:18:45.711Z,100.00
2022-11-21T00:21:16.552Z,100.00
2022-11-21T00:23:48.233Z,100.00
2022-11-21T00:26:17.947Z,100.00
2022-11-21T00:28:47.007Z,100.00
2022-11-21T00:31:25.251Z,100.00
2022-11-21T00:33:54.292Z,100.00
2022-11-21T00:36:23.164Z,100.00
2022-11-21T00:38:53.395Z,100.00
2022-11-21T00:41:22.285Z,100.00
2022-11-21T00:43:51.243Z,100.00
2022-11-21T00:46:20.084Z,100.00
2022-11-21T00:48:48.968Z,100.00
2022-11-21T00:51:18.037Z,100.00
2022-11-21T00:53:46.923Z,100.00
2022-11-21T00:56:17.195Z,100.00
2022-11-21T00:58:46.479Z,100.00
2022-11-21T01:01:17.052Z,100.00
2022-11-21T01:03:46.988Z,100.00
2022-11-21T01:06:17.130Z,100.00
2022-11-21T01:08:46.246Z,100.00
2022-11-21T01:11:19.976Z,100.00
2022-11-21T01:13:49.902Z,100.00
2022-11-21T01:16:21.166Z,100.00
2022-11-21T01:18:50.080Z,100.00
2022-11-21T01:21:23.633Z,100.00
2022-11-21T01:23:52.832Z,100.00
2022-11-21T01:26:25.723Z,100.00
2022-11-21T01:28:55.012Z,100.00
2022-11-21T01:31:26.165Z,100.00
2022-11-21T01:33:55.833Z,100.00
2022-11-21T01:36:27.703Z,100.00
2022-11-21T01:38:58.966Z,100.00
2022-11-21T01:41:33.620Z,100.00
2022-11-21T01:44:03.303Z,100.00
2022-11-21T01:46:32.158Z,100.00
2022-11-21T01:49:05.767Z,100.00
2022-11-21T01:51:38.667Z,100.00
2022-11-21T01:54:11.625Z,100.00
2022-11-21T01:56:47.951Z,100.00
2022-11-21T01:59:22.828Z,100.00
2022-11-21T02:01:55.092Z,100.00
2022-11-21T02:04:27.797Z,100.00
2022-11-21T02:06:56.847Z,100.00
2022-11-21T02:09:27.523Z,100.00
2022-11-21T02:12:02.001Z,100.00
2022-11-21T02:14:31.363Z,100.00
2022-11-21T02:17:04.835Z,100.00
2022-11-21T02:19:43.868Z,100.00
2022-11-21T02:22:21.438Z,100.00
2022-11-21T02:25:08.510Z,100.00
2022-11-21T02:27:37.544Z,100.00
2022-11-21T02:30:10.023Z,100.00
2022-11-21T02:32:41.450Z,100.00
2022-11-21T02:35:10.589Z,100.00
2022-11-21T02:37:39.572Z,100.00
2022-11-21T02:40:13.957Z,100.00
2022-11-21T02:42:52.563Z,100.00
2022-11-21T02:45:26.408Z,100.00
2022-11-21T02:48:00.853Z,100.00
2022-11-21T02:50:34.386Z,100.00
2022-11-21T02:53:06.003Z,100.00
2022-11-21T02:55:36.785Z,100.00
2022-11-21T02:58:06.584Z,100.00
2022-11-21T03:00:36.893Z,100.00
2022-11-21T03:03:05.831Z,100.00
2022-11-21T03:05:34.758Z,100.00
2022-11-21T03:08:04.190Z,100.00
2022-11-21T03:10:33.658Z,100.00
2022-11-21T03:13:03.942Z,100.00
2022-11-21T03:15:34.587Z,100.00
2022-11-21T03:18:04.473Z,100.00
2022-11-21T03:20:34.724Z,100.00
2022-11-21T03:23:04.240Z,100.00
2022-11-21T03:25:33.114Z,100.00
2022-11-21T03:28:03.351Z,100.00
2022-11-21T03:30:32.820Z,100.00
2022-11-21T03:33:02.025Z,100.00
2022-11-21T03:35:30.860Z,100.00
2022-11-21T03:37:59.736Z,100.00
2022-11-21T03:40:28.583Z,100.00
2022-11-21T03:42:57.500Z,100.00
2022-11-21T03:45:27.758Z,100.00
2022-11-21T03:47:56.614Z,100.00
2022-11-21T03:50:25.508Z,100.00
2022-11-21T03:52:54.383Z,100.00
2022-11-21T03:55:23.312Z,100.00
2022-11-21T03:57:52.203Z,100.00
2022-11-21T04:00:21.253Z,100.00
2022-11-21T04:02:51.528Z,100.00
2022-11-21T04:05:20.598Z,100.00
2022-11-21T04:07:49.516Z,100.00
2022-11-21T04:10:19.294Z,100.00
2022-11-21T04:12:48.325Z,100.00
2022-11-21T04:15:17.290Z,100.00
2022-11-21T04:17:46.202Z,100.00
2022-11-21T04:20:17.493Z,100.00
2022-11-21T04:22:46.402Z,100.00
2022-11-21T04:25:15.371Z,100.00
2022-11-21T04:27:44.254Z,100.00
2022-11-21T04:30:14.101Z,100.00
2022-11-21T04:32:44.180Z,100.00
2022-11-21T04:35:13.028Z,100.00
2022-11-21T04:37:43.709Z,100.00
2022-11-21T04:40:14.544Z,100.00
2022-11-21T04:42:43.647Z,100.00
2022-11-21T04:45:13.747Z,100.00
2022-11-21T04:47:44.112Z,100.00
2022-11-21T04:50:15.133Z,100.00
2022-11-21T04:52:51.046Z,100.00
2022-11-21T04:55:20.366Z,100.00
2022-11-21T04:57:49.442Z,100.00
2022-11-21T05:00:23.938Z,100.00
2022-11-21T05:02:53.486Z,100.00
2022-11-21T05:05:26.085Z,100.00
2022-11-21T05:07:56.365Z,100.00
2022-11-21T05:10:25.300Z,100.00
2022-11-21T05:13:18.554Z,100.00
2022-11-21T05:15:51.508Z,100.00
2022-11-21T05:18:20.878Z,100.00
2022-11-21T05:20:49.719Z,100.00
2022-11-21T05:23:20.006Z,100.00
2022-11-21T05:25:48.974Z,100.00
2022-11-21T05:28:17.957Z,100.00
2022-11-21T05:30:46.857Z,100.00
2022-11-21T05:33:15.775Z,100.00
2022-11-21T05:35:44.972Z,100.00
2022-11-21T05:38:13.886Z,100.00
2022-11-21T05:40:44.203Z,100.00
2022-11-21T05:43:30.823Z,100.00
2022-11-21T05:45:59.772Z,100.00
2022-11-21T05:48:28.698Z,100.00
2022-11-21T05:50:57.596Z,100.00
2022-11-21T05:53:26.527Z,100.00
2022-11-21T05:55:56.903Z,100.00
2022-11-21T05:58:25.746Z,100.00
2022-11-21T06:00:59.985Z,100.00
2022-11-21T06:03:32.530Z,100.00
2022-11-21T06:06:03.242Z,100.00
2022-11-21T06:08:34.499Z,100.00
2022-11-21T06:11:06.981Z,100.00
2022-11-21T06:13:36.683Z,100.00
2022-11-21T06:16:07.090Z,100.00
2022-11-21T06:18:37.984Z,100.00
2022-11-21T06:21:08.688Z,100.00
2022-11-21T06:23:38.017Z,100.00
2022-11-21T06:26:10.357Z,100.00
2022-11-21T06:28:40.782Z,100.00
2022-11-21T06:31:11.203Z,100.00
2022-11-21T06:33:41.097Z,100.00
2022-11-21T06:36:12.228Z,100.00
2022-11-21T06:38:41.455Z,100.00
2022-11-21T06:41:14.487Z,96.08
2022-11-21T06:43:43.555Z,94.77
2022-11-21T06:46:13.252Z,97.61
2022-11-21T06:48:42.548Z,100.00
2022-11-21T06:51:17.594Z,100.00
2022-11-21T06:53:46.921Z,100.00
2022-11-21T06:56:17.492Z,100.00
2022-11-21T06:58:46.373Z,100.00
2022-11-21T07:01:15.621Z,100.00
2022-11-21T07:03:44.527Z,94.10
2022-11-21T07:06:13.706Z,83.84
2022-11-21T07:08:42.546Z,84.51
2022-11-21T07:11:29.045Z,80.81
2022-11-21T07:13:59.296Z,84.25
2022-11-21T07:16:31.862Z,90.24
2022-11-21T07:19:01.152Z,96.19
2022-11-21T07:21:30.025Z,92.86
2022-11-21T07:23:58.940Z,85.36
2022-11-21T07:26:27.845Z,86.67
2022-11-21T07:28:56.772Z,94.23
2022-11-21T07:31:26.974Z,87.99
2022-11-21T07:33:55.855Z,88.39
2022-11-21T07:36:24.852Z,89.69
2022-11-21T07:38:53.724Z,91.21
2022-11-21T07:41:22.577Z,92.77
2022-11-21T07:43:51.423Z,90.79
2022-11-21T07:46:20.269Z,90.78
2022-11-21T07:48:50.565Z,93.11
2022-11-21T07:51:19.433Z,92.41
2022-11-21T07:53:48.567Z,95.64
2022-11-21T07:56:17.970Z,97.21
2022-11-21T07:58:46.800Z,98.58
2022-11-21T08:01:16.139Z,98.76
2022-11-21T08:03:45.005Z,100.00
2022-11-21T08:06:15.306Z,100.00
2022-11-21T08:08:44.808Z,100.00
2022-11-21T08:11:13.710Z,100.00
2022-11-21T08:13:42.537Z,100.00
2022-11-21T08:16:11.424Z,100.00
2022-11-21T08:18:40.347Z,100.00
2022-11-21T08:21:09.212Z,100.00
2022-11-21T08:23:39.454Z,100.00
2022-11-21T08:26:11.311Z,100.00
2022-11-21T08:28:40.287Z,100.00
2022-11-21T08:31:09.246Z,100.00
2022-11-21T08:33:38.151Z,100.00
2022-11-21T08:36:07.890Z,100.00
2022-11-21T08:38:36.801Z,100.00
2022-11-21T08:41:24.869Z,100.00
2022-11-21T08:43:53.766Z,100.00
2022-11-21T08:46:27.286Z,100.00
2022-11-21T08:48:56.258Z,100.00
2022-11-21T08:51:25.220Z,100.00
2022-11-21T08:53:54.069Z,100.00
2022-11-21T08:56:24.680Z,100.00
2022-11-21T08:58:53.554Z,100.00
2022-11-21T09:01:22.496Z,100.00
2022-11-21T09:03:51.835Z,100.00
2022-11-21T09:06:20.744Z,100.00
2022-11-21T09:08:49.633Z,100.00
2022-11-21T09:11:18.505Z,100.00
2022-11-21T09:14:09.236Z,100.00
2022-11-21T09:17:00.676Z,100.00
2022-11-21T09:19:31.205Z,100.00
2022-11-21T09:22:00.595Z,100.00
2022-11-21T09:24:29.776Z,100.00
2022-11-21T09:26:58.608Z,100.00
2022-11-21T09:29:29.007Z,100.00
2022-11-21T09:31:58.118Z,100.00
2022-11-21T09:34:27.449Z,100.00
2022-11-21T09:36:56.753Z,100.00
2022-11-21T09:39:25.902Z,100.00
2022-11-21T09:42:08.583Z,100.00
2022-11-21T09:44:53.307Z,100.00
2022-11-21T09:47:26.234Z,100.00
2022-11-21T09:50:01.993Z,100.00
2022-11-21T09:52:38.491Z,100.00
2022-11-21T09:55:18.388Z,100.00
2022-11-21T09:57:50.201Z,100.00
2022-11-21T10:00:24.719Z,100.00
2022-11-21T10:02:53.906Z,100.00
2022-11-21T10:05:31.837Z,100.00
2022-11-21T10:08:07.247Z,100.00
2022-11-21T10:10:52.206Z,100.00
2022-11-21T10:13:33.225Z,100.00
2022-11-21T10:16:11.212Z,100.00
2022-11-21T10:19:05.693Z,98.00
2022-11-21T10:22:11.060Z,100.00
2022-11-21T10:24:51.488Z,100.00
2022-11-21T10:27:28.249Z,96.18
2022-11-21T10:30:03.529Z,100.00
2022-11-21T10:32:39.806Z,100.00
2022-11-21T10:35:16.681Z,100.00
2022-11-21T10:37:49.869Z,100.00
2022-11-21T10:40:36.925Z,99.07
2022-11-21T10:43:28.825Z,100.00
2022-11-21T10:45:57.815Z,97.27
2022-11-21T10:48:28.114Z,96.20
2022-11-21T10:51:19.272Z,100.00
2022-11-21T10:54:07.971Z,92.86
2022-11-21T10:56:38.251Z,96.46
2022-11-21T10:59:20.392Z,90.91
2022-11-21T11:01:57.241Z,88.06
2022-11-21T11:04:30.276Z,86.44
2022-11-21T11:07:22.517Z,91.22
2022-11-21T11:09:53.592Z,89.54
2022-11-21T11:12:46.881Z,91.60
2022-11-21T11:15:24.950Z,94.05
2022-11-21T11:17:57.547Z,95.22
2022-11-21T11:20:38.423Z,91.12
2022-11-21T11:23:26.980Z,90.12
2022-11-21T11:25:57.809Z,93.99
2022-11-21T11:28:28.500Z,87.97
2022-11-21T11:30:59.062Z,91.17
2022-11-21T11:33:33.234Z,91.89
2022-11-21T11:36:13.725Z,93.06
2022-11-21T11:38:48.253Z,95.49
2022-11-21T11:41:59.036Z,100.00
2022-11-21T11:44:55.048Z,99.07
2022-11-21T11:47:34.104Z,97.20
2022-11-21T11:50:15.034Z,95.28
2022-11-21T11:52:56.933Z,92.18
2022-11-21T11:55:30.717Z,94.05
2022-11-21T11:58:03.720Z,98.44
2022-11-21T12:00:41.643Z,96.65
2022-11-21T12:03:16.596Z,97.97
2022-11-21T12:05:57.620Z,100.00
2022-11-21T12:08:41.718Z,96.30
2022-11-21T12:11:37.825Z,95.62
2022-11-21T12:14:39.424Z,95.84
2022-11-21T12:17:11.025Z,96.69
2022-11-21T12:19:41.014Z,95.56
2022-11-21T12:22:12.084Z,92.42
2022-11-21T12:24:43.351Z,94.50
2022-11-21T12:27:25.432Z,94.04
2022-11-21T12:30:07.476Z,89.82
2022-11-21T12:32:55.745Z,89.72
2022-11-21T12:35:43.262Z,91.76
2022-11-21T12:38:26.621Z,89.83
2022-11-21T12:41:27.966Z,93.15
2022-11-21T12:44:08.452Z,90.36
2022-11-21T12:46:47.099Z,90.71
2022-11-21T12:49:42.793Z,94.00
2022-11-21T12:52:47.238Z,92.65
2022-11-21T12:55:25.197Z,90.94
2022-11-21T12:58:10.751Z,89.91
2022-11-21T13:00:53.477Z,89.35
2022-11-21T13:03:55.967Z,88.82
2022-11-21T13:06:27.841Z,84.17
2022-11-21T13:08:59.887Z,84.46
2022-11-21T13:12:01.081Z,80.48
2022-11-21T13:14:39.340Z,76.11
2022-11-21T13:17:22.056Z,87.56
2022-11-21T13:19:55.334Z,89.98
2022-11-21T13:22:49.784Z,94.21
2022-11-21T13:25:41.025Z,97.84
2022-11-21T13:28:35.791Z,95.56
2022-11-21T13:31:30.674Z,92.94
2022-11-21T13:34:00.389Z,87.03
2022-11-21T13:36:38.953Z,86.46
2022-11-21T13:39:36.352Z,91.05
2022-11-21T13:42:30.127Z,83.68
2022-11-21T13:44:59.619Z,83.77
2022-11-21T13:48:06.454Z,80.05
2022-11-21T13:50:52.279Z,80.67
2022-11-21T13:54:02.316Z,80.80
2022-11-21T13:56:38.271Z,79.55
2022-11-21T13:59:39.624Z,72.33
2022-11-21T14:02:32.222Z,72.92
2022-11-21T14:05:46.105Z,77.24
2022-11-21T14:08:20.413Z,80.86
2022-11-21T14:10:51.566Z,88.40
2022-11-21T14:13:26.109Z,96.69
2022-11-21T14:16:14.782Z,97.36
2022-11-21T14:18:47.251Z,97.60
2022-11-21T14:21:26.645Z,100.00
2022-11-21T14:23:58.031Z,95.70
2022-11-21T14:26:27.445Z,97.83
2022-11-21T14:29:22.964Z,95.86
2022-11-21T14:31:52.000Z,97.55
2022-11-21T14:34:28.607Z,94.46
2022-11-21T14:37:01.083Z,96.99
2022-11-21T14:39:43.681Z,95.03
2022-11-21T14:42:15.970Z,95.57
2022-11-21T14:44:46.216Z,96.11
2022-11-21T14:47:23.557Z,96.16
2022-11-21T14:49:58.691Z,95.13
2022-11-21T14:52:32.276Z,92.61
2022-11-21T14:57:53.207Z,86.83
2022-11-21T15:03:21.272Z,88.75
2022-11-21T15:06:08.147Z,88.42
2022-11-21T15:09:18.418Z,87.23
2022-11-21T15:11:36.130Z,81.36
2022-11-21T15:14:15.907Z,81.93
2022-11-21T15:16:49.094Z,82.27
2022-11-21T15:19:23.568Z,80.34
2022-11-21T15:21:54.227Z,84.81
2022-11-21T15:24:32.353Z,87.69
2022-11-21T15:27:01.345Z,88.68
2022-11-21T15:29:32.246Z,85.96
2022-11-21T15:32:15.810Z,90.08
2022-11-21T15:34:45.346Z,89.02
2022-11-21T15:37:17.341Z,92.64
2022-11-21T15:39:48.405Z,91.30
2022-11-21T15:42:37.020Z,88.38
2022-11-21T15:45:23.954Z,87.05
2022-11-21T15:47:55.626Z,88.27
2022-11-21T15:50:26.383Z,88.89
2022-11-21T15:52:55.395Z,90.69
2022-11-21T15:55:26.973Z,94.61
2022-11-21T15:57:55.921Z,98.13
2022-11-21T16:00:24.842Z,97.71
2022-11-21T16:02:55.123Z,98.04
2022-11-21T16:05:24.302Z,96.79
2022-11-21T16:07:53.258Z,97.81
2022-11-21T16:10:27.592Z,96.55
2022-11-21T16:12:57.294Z,91.71
2022-11-21T16:15:26.254Z,94.19
2022-11-21T16:17:56.567Z,92.06
2022-11-21T16:20:25.424Z,90.15
2022-11-21T16:22:54.314Z,95.56
2022-11-21T16:25:23.216Z,94.25
2022-11-21T16:27:52.113Z,90.63
2022-11-21T16:30:21.074Z,93.01
2022-11-21T16:32:51.303Z,90.73
2022-11-21T16:35:21.592Z,88.00
2022-11-21T16:37:52.202Z,88.11
2022-11-21T16:40:21.061Z,92.75
2022-11-21T16:42:49.914Z,91.76
2022-11-21T16:45:18.955Z,88.44
2022-11-21T16:47:49.124Z,84.19
2022-11-21T16:50:18.819Z,85.41
2022-11-21T16:52:49.724Z,87.14
2022-11-21T16:55:18.637Z,83.24
2022-11-21T16:57:47.763Z,84.01
2022-11-21T17:00:18.120Z,84.09
2022-11-21T17:02:47.129Z,83.93
2022-11-21T17:05:16.128Z,81.79
2022-11-21T17:07:45.033Z,83.16
2022-11-21T17:10:15.921Z,83.06
2022-11-21T17:12:45.246Z,85.38
2022-11-21T17:15:16.396Z,85.43
2022-11-21T17:17:45.264Z,94.25
2022-11-21T17:20:14.184Z,81.85
2022-11-21T17:22:43.115Z,83.39
2022-11-21T17:25:12.020Z,83.98
2022-11-21T17:27:42.342Z,83.66
2022-11-21T17:30:12.252Z,84.24
2022-11-21T17:32:41.235Z,84.21
2022-11-21T17:35:11.363Z,83.39
2022-11-21T17:37:40.727Z,80.68
2022-11-21T17:40:12.704Z,85.02
2022-11-21T17:42:43.587Z,88.38
2022-11-21T17:45:12.628Z,88.89
2022-11-21T17:47:42.290Z,93.61
2022-11-21T17:50:11.458Z,97.43
2022-11-21T17:52:40.390Z,95.18
2022-11-21T17:55:09.283Z,95.32
2022-11-21T17:57:38.151Z,96.77
2022-11-21T18:00:09.968Z,95.37
2022-11-21T18:02:38.943Z,94.19
2022-11-21T18:05:07.943Z,93.23
2022-11-21T18:07:37.824Z,89.51
2022-11-21T18:10:35.628Z,90.81
2022-11-21T18:12:59.269Z,90.39
2022-11-21T18:15:29.496Z,88.18
2022-11-21T18:17:58.418Z,88.09
2022-11-21T18:20:27.290Z,92.45
2022-11-21T18:22:56.319Z,96.58
2022-11-21T18:25:25.254Z,100.00
2022-11-21T18:27:54.860Z,100.00
2022-11-21T18:30:24.291Z,100.00
2022-11-21T18:32:54.860Z,100.00
2022-11-21T18:35:23.974Z,100.00
2022-11-21T18:37:52.918Z,100.00
2022-11-21T18:40:21.888Z,100.00
2022-11-21T18:42:50.783Z,100.00
2022-11-21T18:45:19.661Z,100.00
2022-11-21T18:47:48.540Z,100.00
2022-11-21T18:50:19.200Z,100.00
2022-11-21T18:52:48.129Z,100.00
2022-11-21T18:55:17.030Z,100.00
2022-11-21T18:57:47.000Z,100.00
2022-11-21T19:00:16.580Z,100.00
2022-11-21T19:02:45.580Z,100.00
2022-11-21T19:05:20.235Z,100.00
2022-11-21T19:07:53.163Z,100.00
2022-11-21T19:10:41.935Z,100.00
2022-11-21T19:13:10.890Z,100.00
2022-11-21T19:15:39.953Z,100.00
2022-11-21T19:18:08.777Z,100.00
2022-11-21T19:20:37.928Z,100.00
2022-11-21T19:23:09.093Z,100.00
2022-11-21T19:25:37.995Z,100.00
2022-11-21T19:28:06.942Z,100.00
2022-11-21T19:30:36.279Z,100.00
2022-11-21T19:33:05.281Z,100.00
2022-11-21T19:35:34.293Z,100.00
2022-11-21T19:38:03.818Z,100.00
2022-11-21T19:40:54.811Z,100.00
2022-11-21T19:43:23.874Z,100.00
2022-11-21T19:45:57.840Z,100.00
2022-11-21T19:48:27.108Z,100.00
2022-11-21T19:50:58.630Z,100.00
2022-11-21T19:53:28.714Z,100.00
2022-11-21T19:55:59.001Z,100.00
2022-11-21T19:58:27.847Z,100.00
2022-11-21T20:01:06.419Z,100.00
2022-11-21T20:03:35.525Z,100.00
2022-11-21T20:06:06.211Z,100.00
2022-11-21T20:08:35.508Z,100.00
2022-11-21T20:11:13.107Z,100.00
2022-11-21T20:13:43.091Z,100.00
2022-11-21T20:16:19.430Z,100.00
2022-11-21T20:18:48.387Z,100.00
2022-11-21T20:21:18.427Z,100.00
2022-11-21T20:23:47.797Z,100.00
2022-11-21T20:26:19.719Z,100.00
2022-11-21T20:28:49.696Z,100.00
2022-11-21T20:31:20.287Z,100.00
2022-11-21T20:33:51.203Z,100.00
2022-11-21T20:36:23.772Z,100.00
2022-11-21T20:38:54.703Z,100.00
2022-11-21T20:41:26.839Z,100.00
2022-11-21T20:44:44.653Z,100.00
2022-11-21T20:46:45.148Z,100.00
2022-11-21T20:49:14.092Z,100.00
2022-11-21T20:53:31.332Z,100.00
2022-11-21T20:54:33.441Z,100.00
2022-11-21T20:57:03.782Z,100.00
2022-11-21T20:59:32.994Z,100.00
2022-11-21T21:02:02.181Z,100.00
2022-11-21T21:04:31.106Z,100.00
2022-11-21T21:07:00.029Z,100.00
2022-11-21T21:09:30.027Z,100.00
2022-11-21T21:11:59.168Z,100.00
2022-11-21T21:14:29.492Z,100.00
2022-11-21T21:16:58.415Z,100.00
2022-11-21T21:19:27.517Z,100.00
2022-11-21T21:21:56.697Z,100.00
2022-11-21T21:24:26.003Z,100.00
2022-11-21T21:26:54.939Z,100.00
2022-11-21T21:29:23.806Z,100.00
2022-11-21T21:31:54.437Z,100.00
2022-11-21T21:34:24.396Z,100.00
2022-11-21T21:36:53.310Z,100.00
2022-11-21T21:39:22.162Z,100.00
2022-11-21T21:41:51.483Z,100.00
2022-11-21T21:44:20.460Z,100.00
2022-11-21T21:46:49.355Z,100.00
2022-11-21T21:49:19.601Z,100.00
2022-11-21T21:51:48.511Z,100.00
2022-11-21T21:54:19.709Z,100.00
2022-11-21T21:56:49.505Z,100.00
2022-11-21T21:59:19.895Z,100.00
2022-11-21T22:01:49.243Z,100.00
2022-11-21T22:04:19.768Z,100.00
2022-11-21T22:06:48.694Z,100.00
2022-11-21T22:09:17.588Z,100.00
2022-11-21T22:11:46.495Z,100.00
2022-11-21T22:14:17.679Z,100.00
2022-11-21T22:16:46.614Z,100.00
2022-11-21T22:19:15.690Z,100.00
2022-11-21T22:21:45.963Z,100.00
2022-11-21T22:24:25.436Z,100.00
2022-11-21T22:26:55.431Z,100.00
2022-11-21T22:29:24.385Z,100.00
2022-11-21T22:31:53.249Z,100.00
2022-11-21T22:34:22.635Z,100.00
2022-11-21T22:36:52.951Z,100.00
2022-11-21T22:39:21.917Z,100.00
2022-11-21T22:41:51.159Z,100.00
2022-11-21T22:44:22.896Z,100.00
2022-11-21T22:46:51.835Z,100.00
2022-11-21T22:49:20.880Z,100.00
2022-11-21T22:51:49.775Z,100.00
2022-11-21T22:54:20.065Z,100.00
2022-11-21T22:56:48.930Z,100.00
2022-11-21T22:59:17.891Z,100.00
2022-11-21T23:01:46.833Z,100.00
2022-11-21T23:04:17.889Z,100.00
2022-11-21T23:06:46.999Z,100.00
2022-11-21T23:09:15.884Z,100.00
2022-11-21T23:11:46.118Z,100.00
2022-11-21T23:14:14.950Z,100.00
2022-11-21T23:16:43.943Z,100.00
2022-11-21T23:19:13.067Z,100.00
2022-11-21T23:21:42.195Z,100.00
2022-11-21T23:24:11.227Z,100.00
2022-11-21T23:26:40.134Z,100.00
2022-11-21T23:29:10.435Z,100.00
2022-11-21T23:31:39.315Z,100.00
2022-11-21T23:34:11.151Z,100.00
2022-11-21T23:36:40.325Z,100.00
2022-11-21T23:39:09.294Z,100.00
2022-11-21T23:41:38.793Z,100.00
2022-11-21T23:44:07.687Z,100.00
2022-11-21T23:46:37.973Z,100.00
2022-11-21T23:49:06.858Z,100.00
2022-11-21T23:51:35.862Z,100.00
2022-11-21T23:54:04.816Z,100.00
2022-11-21T23:56:33.724Z,100.00
2022-11-21T23:59:03.174Z,100.00
